Aviation Digital Data Service (ADDS)

Output produced by TAFs form (0138 UTC 29 April 2017)
found at http://aviationweather.gov/adds/tafs/
 
KDRO 282341Z 2900/2924 27009G19KT P6SM FEW030 BKN040 OVC050 
     FM290100 31008KT P6SM SCT100 
     FM290400 01006KT P6SM SCT130 
     FM291100 05004KT P6SM BKN110 
     FM291300 05005KT P6SM VCSH BKN100 
     FM291800 09005KT P6SM BKN070